sensor_id;sensor_type;location;lat;lon;timestamp;pressure;altitude;pressure_sealevel;temperature;humidity
79150;BME280;68563;45.644;13.782;2023-05-07T00:02:14;100984.75;;;19.73;48.63
79150;BME280;68563;45.644;13.782;2023-05-07T00:04:39;100982.91;;;19.75;48.62
79150;BME280;68563;45.644;13.782;2023-05-07T00:07:04;100980.41;;;19.72;48.37
79150;BME280;68563;45.644;13.782;2023-05-07T00:09:30;100984.03;;;19.69;48.31
79150;BME280;68563;45.644;13.782;2023-05-07T00:11:56;100977.28;;;19.64;48.96
79150;BME280;68563;45.644;13.782;2023-05-07T00:14:21;100979.69;;;19.68;48.59
79150;BME280;68563;45.644;13.782;2023-05-07T00:16:46;100975.28;;;19.69;48.66
79150;BME280;68563;45.644;13.782;2023-05-07T00:19:12;100976.97;;;19.70;48.75
79150;BME280;68563;45.644;13.782;2023-05-07T00:21:37;100978.69;;;19.71;48.85
79150;BME280;68563;45.644;13.782;2023-05-07T00:24:03;100973.44;;;19.71;49.10
79150;BME280;68563;45.644;13.782;2023-05-07T00:26:28;100963.13;;;19.66;49.25
79150;BME280;68563;45.644;13.782;2023-05-07T00:28:54;100968.16;;;19.52;49.54
79150;BME280;68563;45.644;13.782;2023-05-07T00:31:19;100960.03;;;19.39;49.65
79150;BME280;68563;45.644;13.782;2023-05-07T00:33:45;100955.09;;;19.31;49.51
79150;BME280;68563;45.644;13.782;2023-05-07T00:36:10;100960.22;;;19.34;49.50
79150;BME280;68563;45.644;13.782;2023-05-07T00:38:35;100955.16;;;19.29;50.00
79150;BME280;68563;45.644;13.782;2023-05-07T00:41:01;100958.59;;;19.32;49.50
79150;BME280;68563;45.644;13.782;2023-05-07T00:43:27;100952.69;;;19.26;49.86
79150;BME280;68563;45.644;13.782;2023-05-07T00:45:53;100957.69;;;19.33;49.62
79150;BME280;68563;45.644;13.782;2023-05-07T00:48:19;100958.63;;;19.30;49.41
79150;BME280;68563;45.644;13.782;2023-05-07T00:50:45;100956.38;;;19.22;49.35
79150;BME280;68563;45.644;13.782;2023-05-07T00:53:11;100953.09;;;19.17;49.08
79150;BME280;68563;45.644;13.782;2023-05-07T00:55:37;100954.09;;;19.15;49.17
79150;BME280;68563;45.644;13.782;2023-05-07T00:58:02;100936.03;;;19.07;49.67
79150;BME280;68563;45.644;13.782;2023-05-07T01:00:28;100946.13;;;19.16;49.33
79150;BME280;68563;45.644;13.782;2023-05-07T01:02:53;100938.47;;;19.11;49.41
79150;BME280;68563;45.644;13.782;2023-05-07T01:05:20;100941.00;;;19.13;49.30
79150;BME280;68563;45.644;13.782;2023-05-07T01:07:47;100944.59;;;19.12;48.99
79150;BME280;68563;45.644;13.782;2023-05-07T01:10:13;100929.22;;;19.03;48.90
79150;BME280;68563;45.644;13.782;2023-05-07T01:12:40;100936.38;;;18.99;48.93
79150;BME280;68563;45.644;13.782;2023-05-07T01:15:07;100943.78;;;18.89;49.07
79150;BME280;68563;45.644;13.782;2023-05-07T01:17:34;100928.03;;;18.89;49.23
79150;BME280;68563;45.644;13.782;2023-05-07T01:20:00;100933.41;;;18.86;48.98
79150;BME280;68563;45.644;13.782;2023-05-07T01:22:33;100935.38;;;18.81;49.03
79150;BME280;68563;45.644;13.782;2023-05-07T01:24:59;100941.44;;;18.83;48.91
79150;BME280;68563;45.644;13.782;2023-05-07T01:27:27;100931.84;;;18.82;49.32
79150;BME280;68563;45.644;13.782;2023-05-07T01:29:52;100946.06;;;18.76;49.13
79150;BME280;68563;45.644;13.782;2023-05-07T01:32:23;100940.38;;;18.87;48.99
79150;BME280;68563;45.644;13.782;2023-05-07T01:34:52;100930.13;;;18.81;48.73
79150;BME280;68563;45.644;13.782;2023-05-07T01:37:19;100934.47;;;18.82;49.23
79150;BME280;68563;45.644;13.782;2023-05-07T01:39:46;100933.47;;;18.85;49.11
79150;BME280;68563;45.644;13.782;2023-05-07T01:42:13;100941.53;;;18.80;48.73
79150;BME280;68563;45.644;13.782;2023-05-07T01:44:38;100928.97;;;18.68;49.46
79150;BME280;68563;45.644;13.782;2023-05-07T01:47:04;100937.63;;;18.70;49.51
79150;BME280;68563;45.644;13.782;2023-05-07T01:49:30;100935.78;;;18.72;49.56
79150;BME280;68563;45.644;13.782;2023-05-07T01:51:55;100938.13;;;18.78;49.26
79150;BME280;68563;45.644;13.782;2023-05-07T01:54:27;100931.47;;;18.71;49.50
79150;BME280;68563;45.644;13.782;2023-05-07T01:56:54;100930.59;;;18.70;49.36
79150;BME280;68563;45.644;13.782;2023-05-07T01:59:20;100905.81;;;18.57;49.42
79150;BME280;68563;45.644;13.782;2023-05-07T02:01:45;100916.91;;;18.63;49.52
79150;BME280;68563;45.644;13.782;2023-05-07T02:04:11;100914.31;;;18.62;49.31
79150;BME280;68563;45.644;13.782;2023-05-07T02:06:36;100915.72;;;18.71;49.83
79150;BME280;68563;45.644;13.782;2023-05-07T02:09:02;100902.72;;;18.68;49.58
79150;BME280;68563;45.644;13.782;2023-05-07T02:11:27;100901.16;;;18.63;49.37
79150;BME280;68563;45.644;13.782;2023-05-07T02:13:52;100901.94;;;18.65;49.72
79150;BME280;68563;45.644;13.782;2023-05-07T02:16:18;100910.25;;;18.75;49.00
79150;BME280;68563;45.644;13.782;2023-05-07T02:18:45;100901.34;;;18.79;48.83
79150;BME280;68563;45.644;13.782;2023-05-07T02:21:10;100904.63;;;18.85;48.48
79150;BME280;68563;45.644;13.782;2023-05-07T02:23:35;100901.16;;;18.84;48.27
79150;BME280;68563;45.644;13.782;2023-05-07T02:26:01;100907.16;;;18.86;48.57
79150;BME280;68563;45.644;13.782;2023-05-07T02:28:26;100901.88;;;18.88;48.68
79150;BME280;68563;45.644;13.782;2023-05-07T02:30:52;100907.03;;;18.89;48.28
79150;BME280;68563;45.644;13.782;2023-05-07T02:33:17;100903.63;;;18.87;48.78
79150;BME280;68563;45.644;13.782;2023-05-07T02:35:43;100901.78;;;18.89;48.76
79150;BME280;68563;45.644;13.782;2023-05-07T02:38:08;100909.44;;;18.95;48.63
79150;BME280;68563;45.644;13.782;2023-05-07T02:40:36;100901.69;;;18.92;48.28
79150;BME280;68563;45.644;13.782;2023-05-07T02:43:04;100898.94;;;18.95;48.21
79150;BME280;68563;45.644;13.782;2023-05-07T02:45:31;100901.47;;;18.97;48.40
79150;BME280;68563;45.644;13.782;2023-05-07T02:47:56;100906.69;;;18.99;48.27
79150;BME280;68563;45.644;13.782;2023-05-07T02:50:22;100900.56;;;18.98;48.18
79150;BME280;68563;45.644;13.782;2023-05-07T02:52:47;100907.31;;;19.04;48.11
79150;BME280;68563;45.644;13.782;2023-05-07T02:55:12;100906.41;;;19.05;48.65
79150;BME280;68563;45.644;13.782;2023-05-07T02:57:38;100908.09;;;19.06;48.75
79150;BME280;68563;45.644;13.782;2023-05-07T03:00:16;100911.84;;;19.00;49.29
79150;BME280;68563;45.644;13.782;2023-05-07T03:02:43;100906.69;;;18.99;49.08
79150;BME280;68563;45.644;13.782;2023-05-07T03:05:08;100903.38;;;18.93;49.07
79150;BME280;68563;45.644;13.782;2023-05-07T03:07:35;100905.16;;;18.93;49.38
79150;BME280;68563;45.644;13.782;2023-05-07T03:10:01;100913.88;;;18.93;49.34
79150;BME280;68563;45.644;13.782;2023-05-07T03:12:26;100919.38;;;18.87;49.77
79150;BME280;68563;45.644;13.782;2023-05-07T03:14:52;100921.19;;;18.85;49.73
79150;BME280;68563;45.644;13.782;2023-05-07T03:17:17;100916.38;;;18.76;50.08
79150;BME280;68563;45.644;13.782;2023-05-07T03:19:42;100911.25;;;18.73;49.98
79150;BME280;68563;45.644;13.782;2023-05-07T03:22:08;100907.25;;;18.64;49.97
79150;BME280;68563;45.644;13.782;2023-05-07T03:24:33;100912.38;;;18.67;50.11
79150;BME280;68563;45.644;13.782;2023-05-07T03:26:59;100920.03;;;18.72;50.22
79150;BME280;68563;45.644;13.782;2023-05-07T03:29:26;100920.81;;;18.74;50.36
79150;BME280;68563;45.644;13.782;2023-05-07T03:31:51;100909.53;;;18.72;50.07
79150;BME280;68563;45.644;13.782;2023-05-07T03:34:17;100916.56;;;18.71;50.36
79150;BME280;68563;45.644;13.782;2023-05-07T03:36:47;100923.34;;;18.77;50.45
79150;BME280;68563;45.644;13.782;2023-05-07T03:39:13;100926.16;;;18.72;50.71
79150;BME280;68563;45.644;13.782;2023-05-07T03:41:38;100928.78;;;18.72;50.30
79150;BME280;68563;45.644;13.782;2023-05-07T03:44:04;100932.38;;;18.70;50.71
79150;BME280;68563;45.644;13.782;2023-05-07T03:46:29;100929.75;;;18.70;50.31
79150;BME280;68563;45.644;13.782;2023-05-07T03:48:54;100918.84;;;18.58;50.29
79150;BME280;68563;45.644;13.782;2023-05-07T03:51:20;100921.28;;;18.63;50.56
79150;BME280;68563;45.644;13.782;2023-05-07T03:53:45;100915.97;;;18.64;50.43
79150;BME280;68563;45.644;13.782;2023-05-07T03:56:11;100928.03;;;18.69;50.22
79150;BME280;68563;45.644;13.782;2023-05-07T03:58:36;100921.28;;;18.63;50.45
79150;BME280;68563;45.644;13.782;2023-05-07T04:01:01;100923.00;;;18.64;50.09
79150;BME280;68563;45.644;13.782;2023-05-07T04:03:29;100932.56;;;18.65;50.50
79150;BME280;68563;45.644;13.782;2023-05-07T04:05:54;100931.69;;;18.64;50.46
79150;BME280;68563;45.644;13.782;2023-05-07T04:08:20;100934.31;;;18.64;50.71
79150;BME280;68563;45.644;13.782;2023-05-07T04:10:45;100937.63;;;18.70;50.56
79150;BME280;68563;45.644;13.782;2023-05-07T04:13:11;100936.75;;;18.69;50.59
79150;BME280;68563;45.644;13.782;2023-05-07T04:15:36;100941.75;;;18.75;50.34
79150;BME280;68563;45.644;13.782;2023-05-07T04:18:01;100941.00;;;18.72;50.77
79150;BME280;68563;45.644;13.782;2023-05-07T04:20:27;100941.97;;;18.71;50.80
79150;BME280;68563;45.644;13.782;2023-05-07T04:22:52;100935.00;;;18.70;50.71
79150;BME280;68563;45.644;13.782;2023-05-07T04:25:18;100935.13;;;18.66;50.66
79150;BME280;68563;45.644;13.782;2023-05-07T04:27:43;100932.50;;;18.66;50.83
79150;BME280;68563;45.644;13.782;2023-05-07T04:30:09;100939.47;;;18.68;50.79
79150;BME280;68563;45.644;13.782;2023-05-07T04:32:34;100940.91;;;18.75;50.53
79150;BME280;68563;45.644;13.782;2023-05-07T04:35:01;100945.81;;;18.82;50.51
79150;BME280;68563;45.644;13.782;2023-05-07T04:37:26;100943.91;;;18.86;50.66
79150;BME280;68563;45.644;13.782;2023-05-07T04:39:52;100953.97;;;18.97;50.22
79150;BME280;68563;45.644;13.782;2023-05-07T04:42:18;100941.84;;;18.94;50.48
79150;BME280;68563;45.644;13.782;2023-05-07T04:44:44;100943.16;;;19.05;50.24
79150;BME280;68563;45.644;13.782;2023-05-07T04:47:10;100948.13;;;19.11;50.42
79150;BME280;68563;45.644;13.782;2023-05-07T04:49:37;100947.66;;;19.22;49.87
79150;BME280;68563;45.644;13.782;2023-05-07T04:52:02;100949.09;;;19.29;50.28
79150;BME280;68563;45.644;13.782;2023-05-07T04:54:28;100957.31;;;19.40;50.08
79150;BME280;68563;45.644;13.782;2023-05-07T04:56:54;100964.63;;;19.53;49.76
79150;BME280;68563;45.644;13.782;2023-05-07T04:59:19;100959.75;;;19.64;49.08
79150;BME280;68563;45.644;13.782;2023-05-07T05:01:44;100967.41;;;19.69;49.36
79150;BME280;68563;45.644;13.782;2023-05-07T05:04:10;100969.75;;;19.75;48.90
79150;BME280;68563;45.644;13.782;2023-05-07T05:06:35;100960.72;;;19.81;48.64
79150;BME280;68563;45.644;13.782;2023-05-07T05:09:01;100981.91;;;19.97;48.64
79150;BME280;68563;45.644;13.782;2023-05-07T05:11:26;100978.84;;;20.06;48.28
79150;BME280;68563;45.644;13.782;2023-05-07T05:13:51;100985.22;;;20.19;48.10
79150;BME280;68563;45.644;13.782;2023-05-07T05:16:17;100983.38;;;20.21;48.29
79150;BME280;68563;45.644;13.782;2023-05-07T05:18:42;100978.81;;;20.25;47.85
79150;BME280;68563;45.644;13.782;2023-05-07T05:21:07;100981.94;;;20.33;47.95
79150;BME280;68563;45.644;13.782;2023-05-07T05:23:33;100977.19;;;20.40;47.42
79150;BME280;68563;45.644;13.782;2023-05-07T05:25:58;100982.72;;;20.53;47.00
79150;BME280;68563;45.644;13.782;2023-05-07T05:28:24;100973.81;;;20.55;47.19
79150;BME280;68563;45.644;13.782;2023-05-07T05:30:49;100976.97;;;20.62;47.05
79150;BME280;68563;45.644;13.782;2023-05-07T05:33:15;100984.81;;;20.64;46.98
79150;BME280;68563;45.644;13.782;2023-05-07T05:35:40;100972.66;;;20.61;46.70
79150;BME280;68563;45.644;13.782;2023-05-07T05:38:06;100981.25;;;20.65;46.91
79150;BME280;68563;45.644;13.782;2023-05-07T05:40:31;100982.69;;;20.72;47.04
79150;BME280;68563;45.644;13.782;2023-05-07T05:42:57;100980.25;;;20.85;47.05
79150;BME280;68563;45.644;13.782;2023-05-07T05:45:22;100984.19;;;20.94;46.61
79150;BME280;68563;45.644;13.782;2023-05-07T05:47:48;100972.88;;;21.09;46.27
79150;BME280;68563;45.644;13.782;2023-05-07T05:50:13;100977.00;;;21.31;45.75
79150;BME280;68563;45.644;13.782;2023-05-07T05:52:38;100967.97;;;21.52;45.24
79150;BME280;68563;45.644;13.782;2023-05-07T05:55:04;100964.78;;;21.63;45.42
79150;BME280;68563;45.644;13.782;2023-05-07T05:57:30;100974.13;;;21.85;44.61
79150;BME280;68563;45.644;13.782;2023-05-07T05:59:55;100967.34;;;21.97;44.48
79150;BME280;68563;45.644;13.782;2023-05-07T06:02:21;100968.41;;;22.09;44.12
79150;BME280;68563;45.644;13.782;2023-05-07T06:04:46;100971.03;;;22.25;44.08
79150;BME280;68563;45.644;13.782;2023-05-07T06:07:12;100976.78;;;22.31;43.88
79150;BME280;68563;45.644;13.782;2023-05-07T06:09:37;100972.38;;;22.32;44.01
79150;BME280;68563;45.644;13.782;2023-05-07T06:12:03;100979.88;;;22.40;44.03
79150;BME280;68563;45.644;13.782;2023-05-07T06:14:28;100982.25;;;22.44;44.13
79150;BME280;68563;45.644;13.782;2023-05-07T06:16:53;100982.06;;;22.47;44.45
79150;BME280;68563;45.644;13.782;2023-05-07T06:19:19;100982.84;;;22.50;44.14
79150;BME280;68563;45.644;13.782;2023-05-07T06:21:49;100991.31;;;22.55;44.34
79150;BME280;68563;45.644;13.782;2023-05-07T06:24:14;100986.72;;;22.58;43.89
79150;BME280;68563;45.644;13.782;2023-05-07T06:26:40;100983.50;;;22.53;44.41
79150;BME280;68563;45.644;13.782;2023-05-07T06:29:06;100990.38;;;22.56;44.67
79150;BME280;68563;45.644;13.782;2023-05-07T06:31:31;100990.22;;;22.59;44.92
79150;BME280;68563;45.644;13.782;2023-05-07T06:33:59;100991.06;;;22.59;45.79
79150;BME280;68563;45.644;13.782;2023-05-07T06:36:25;100994.56;;;22.60;46.31
79150;BME280;68563;45.644;13.782;2023-05-07T06:38:51;100994.47;;;22.61;46.06
79150;BME280;68563;45.644;13.782;2023-05-07T06:41:16;100983.13;;;22.59;46.15
79150;BME280;68563;45.644;13.782;2023-05-07T06:43:42;100987.03;;;22.68;45.91
79150;BME280;68563;45.644;13.782;2023-05-07T06:46:07;100989.41;;;22.73;45.83
79150;BME280;68563;45.644;13.782;2023-05-07T06:48:32;100981.69;;;22.70;45.87
79150;BME280;68563;45.644;13.782;2023-05-07T06:50:58;100983.69;;;22.81;45.46
79150;BME280;68563;45.644;13.782;2023-05-07T06:53:24;100987.00;;;22.84;45.05
79150;BME280;68563;45.644;13.782;2023-05-07T06:55:49;100978.69;;;22.90;45.10
79150;BME280;68563;45.644;13.782;2023-05-07T06:58:15;100980.19;;;22.94;44.93
79150;BME280;68563;45.644;13.782;2023-05-07T07:00:40;100983.22;;;23.03;44.49
79150;BME280;68563;45.644;13.782;2023-05-07T07:03:06;100983.78;;;23.08;44.39
79150;BME280;68563;45.644;13.782;2023-05-07T07:05:32;100990.41;;;23.15;44.35
79150;BME280;68563;45.644;13.782;2023-05-07T07:07:57;100977.13;;;23.17;44.06
79150;BME280;68563;45.644;13.782;2023-05-07T07:10:23;100980.81;;;23.29;43.60
79150;BME280;68563;45.644;13.782;2023-05-07T07:12:49;100971.66;;;23.34;43.39
79150;BME280;68563;45.644;13.782;2023-05-07T07:15:15;100978.16;;;23.43;43.56
79150;BME280;68563;45.644;13.782;2023-05-07T07:17:41;100967.81;;;23.40;43.23
79150;BME280;68563;45.644;13.782;2023-05-07T07:20:07;100973.16;;;23.53;43.39
79150;BME280;68563;45.644;13.782;2023-05-07T07:22:33;100979.00;;;23.58;43.15
79150;BME280;68563;45.644;13.782;2023-05-07T07:24:58;100978.81;;;23.61;43.08
79150;BME280;68563;45.644;13.782;2023-05-07T07:27:23;100977.47;;;23.68;43.15
79150;BME280;68563;45.644;13.782;2023-05-07T07:29:49;100975.31;;;23.75;43.05
79150;BME280;68563;45.644;13.782;2023-05-07T07:32:14;100975.97;;;23.79;42.82
79150;BME280;68563;45.644;13.782;2023-05-07T07:34:40;100977.22;;;23.86;42.88
79150;BME280;68563;45.644;13.782;2023-05-07T07:37:05;100985.75;;;23.91;43.28
79150;BME280;68563;45.644;13.782;2023-05-07T07:39:34;100976.28;;;23.87;44.13
79150;BME280;68563;45.644;13.782;2023-05-07T07:42:00;100987.63;;;23.89;44.18
79150;BME280;68563;45.644;13.782;2023-05-07T07:44:26;100985.09;;;23.87;44.20
79150;BME280;68563;45.644;13.782;2023-05-07T07:46:52;100986.88;;;23.87;44.19
79150;BME280;68563;45.644;13.782;2023-05-07T07:49:17;100984.34;;;23.85;44.35
79150;BME280;68563;45.644;13.782;2023-05-07T07:51:43;100982.53;;;23.86;44.36
79150;BME280;68563;45.644;13.782;2023-05-07T07:54:08;100994.63;;;23.90;44.31
79150;BME280;68563;45.644;13.782;2023-05-07T07:56:34;100982.34;;;23.89;44.27
79150;BME280;68563;45.644;13.782;2023-05-07T07:59:00;100989.16;;;23.93;44.49
79150;BME280;68563;45.644;13.782;2023-05-07T08:01:26;100989.91;;;23.95;44.46
79150;BME280;68563;45.644;13.782;2023-05-07T08:03:51;100993.03;;;24.02;44.98
79150;BME280;68563;45.644;13.782;2023-05-07T08:06:17;100996.31;;;24.05;44.62
79150;BME280;68563;45.644;13.782;2023-05-07T08:08:42;100992.50;;;24.10;44.86
79150;BME280;68563;45.644;13.782;2023-05-07T08:11:08;100996.47;;;24.17;44.87
79150;BME280;68563;45.644;13.782;2023-05-07T08:13:34;100999.88;;;24.19;44.60
79150;BME280;68563;45.644;13.782;2023-05-07T08:15:59;101003.22;;;24.21;44.33
79150;BME280;68563;45.644;13.782;2023-05-07T08:18:25;100998.81;;;24.21;44.31
79150;BME280;68563;45.644;13.782;2023-05-07T08:20:53;101004.00;;;24.23;43.68
79150;BME280;68563;45.644;13.782;2023-05-07T08:23:18;101006.84;;;24.20;43.43
79150;BME280;68563;45.644;13.782;2023-05-07T08:25:44;101007.50;;;24.24;43.33
79150;BME280;68563;45.644;13.782;2023-05-07T08:28:09;101008.53;;;24.21;42.92
79150;BME280;68563;45.644;13.782;2023-05-07T08:30:35;101007.88;;;24.17;42.86
79150;BME280;68563;45.644;13.782;2023-05-07T08:33:00;101009.69;;;24.17;42.71
79150;BME280;68563;45.644;13.782;2023-05-07T08:35:26;101011.56;;;24.15;42.64
79150;BME280;68563;45.644;13.782;2023-05-07T08:37:52;101006.78;;;24.07;42.76
79150;BME280;68563;45.644;13.782;2023-05-07T08:40:18;101022.66;;;24.07;42.47
79150;BME280;68563;45.644;13.782;2023-05-07T08:42:44;101021.81;;;24.06;42.85
79150;BME280;68563;45.644;13.782;2023-05-07T08:45:10;101016.72;;;24.03;42.67
79150;BME280;68563;45.644;13.782;2023-05-07T08:47:51;101020.19;;;24.04;42.73
79150;BME280;68563;45.644;13.782;2023-05-07T08:50:18;101019.25;;;24.05;42.13
79150;BME280;68563;45.644;13.782;2023-05-07T08:52:45;101002.94;;;23.98;42.20
79150;BME280;68563;45.644;13.782;2023-05-07T08:55:12;101008.91;;;24.02;42.22
79150;BME280;68563;45.644;13.782;2023-05-07T08:57:37;101023.50;;;24.08;42.46
79150;BME280;68563;45.644;13.782;2023-05-07T09:00:04;101014.91;;;24.04;42.95
79150;BME280;68563;45.644;13.782;2023-05-07T09:02:34;101014.09;;;24.03;43.09
79150;BME280;68563;45.644;13.782;2023-05-07T09:05:00;101015.97;;;24.01;43.40
79150;BME280;68563;45.644;13.782;2023-05-07T09:07:26;101025.50;;;24.04;43.51
79150;BME280;68563;45.644;13.782;2023-05-07T09:09:52;101017.66;;;24.02;43.30
79150;BME280;68563;45.644;13.782;2023-05-07T09:12:18;101018.53;;;24.03;43.17
79150;BME280;68563;45.644;13.782;2023-05-07T09:14:44;101022.19;;;24.00;43.43
79150;BME280;68563;45.644;13.782;2023-05-07T09:17:09;101022.41;;;23.97;43.39
79150;BME280;68563;45.644;13.782;2023-05-07T09:19:35;101026.00;;;23.96;43.69
79150;BME280;68563;45.644;13.782;2023-05-07T09:22:02;101026.19;;;23.93;43.82
79150;BME280;68563;45.644;13.782;2023-05-07T09:24:28;101015.97;;;23.87;43.63
79150;BME280;68563;45.644;13.782;2023-05-07T09:26:59;101022.00;;;23.89;43.63
79150;BME280;68563;45.644;13.782;2023-05-07T09:29:26;101017.88;;;23.85;43.87
79150;BME280;68563;45.644;13.782;2023-05-07T09:31:54;101022.41;;;23.83;43.88
79150;BME280;68563;45.644;13.782;2023-05-07T09:34:19;101020.03;;;23.78;44.49
79150;BME280;68563;45.644;13.782;2023-05-07T09:36:45;101015.81;;;23.76;43.86
79150;BME280;68563;45.644;13.782;2023-05-07T09:39:10;101014.75;;;23.78;44.42
79150;BME280;68563;45.644;13.782;2023-05-07T09:41:44;101019.69;;;23.70;44.49
79150;BME280;68563;45.644;13.782;2023-05-07T09:44:10;101017.78;;;23.72;44.35
79150;BME280;68563;45.644;13.782;2023-05-07T09:46:36;101023.19;;;23.70;44.50
79150;BME280;68563;45.644;13.782;2023-05-07T09:49:06;101025.06;;;23.68;44.31
79150;BME280;68563;45.644;13.782;2023-05-07T09:51:39;101026.94;;;23.66;44.17
79150;BME280;68563;45.644;13.782;2023-05-07T09:54:06;101024.69;;;23.60;44.19
79150;BME280;68563;45.644;13.782;2023-05-07T09:56:32;101028.00;;;23.64;44.04
79150;BME280;68563;45.644;13.782;2023-05-07T09:59:01;101029.03;;;23.61;44.19
79150;BME280;68563;45.644;13.782;2023-05-07T10:01:30;101026.56;;;23.58;43.78
79150;BME280;68563;45.644;13.782;2023-05-07T10:03:57;101027.53;;;23.57;43.87
79150;BME280;68563;45.644;13.782;2023-05-07T10:06:25;101029.22;;;23.58;43.90
79150;BME280;68563;45.644;13.782;2023-05-07T10:08:53;101031.13;;;23.56;43.62
79150;BME280;68563;45.644;13.782;2023-05-07T10:11:21;101029.53;;;23.53;43.82
79150;BME280;68563;45.644;13.782;2023-05-07T10:13:47;101022.66;;;23.51;43.24
79150;BME280;68563;45.644;13.782;2023-05-07T10:16:13;101024.31;;;23.52;44.12
79150;BME280;68563;45.644;13.782;2023-05-07T10:18:40;101020.00;;;23.51;44.78
79150;BME280;68563;45.644;13.782;2023-05-07T10:21:20;101020.72;;;23.53;44.38
79150;BME280;68563;45.644;13.782;2023-05-07T10:23:51;101016.22;;;23.55;43.83
79150;BME280;68563;45.644;13.782;2023-05-07T10:26:20;101012.63;;;23.56;43.56
79150;BME280;68563;45.644;13.782;2023-05-07T10:28:53;101015.16;;;23.57;43.26
79150;BME280;68563;45.644;13.782;2023-05-07T10:31:34;101019.22;;;23.63;42.82
79150;BME280;68563;45.644;13.782;2023-05-07T10:34:08;101006.94;;;23.62;42.84
79150;BME280;68563;45.644;13.782;2023-05-07T10:36:35;101008.84;;;23.60;42.74
79150;BME280;68563;45.644;13.782;2023-05-07T10:39:01;101013.06;;;23.63;42.83
79150;BME280;68563;45.644;13.782;2023-05-07T10:41:26;101014.78;;;23.64;43.66
79150;BME280;68563;45.644;13.782;2023-05-07T10:43:52;101011.19;;;23.65;43.48
79150;BME280;68563;45.644;13.782;2023-05-07T10:46:18;101008.00;;;23.60;43.36
79150;BME280;68563;45.644;13.782;2023-05-07T10:51:33;101012.25;;;23.62;42.75
79150;BME280;68563;45.644;13.782;2023-05-07T10:56:36;101013.06;;;23.63;42.46
79150;BME280;68563;45.644;13.782;2023-05-07T11:04:20;101013.72;;;23.66;42.44
79150;BME280;68563;45.644;13.782;2023-05-07T11:15:07;101011.28;;;23.63;41.83
79150;BME280;68563;45.644;13.782;2023-05-07T11:17:33;101012.78;;;23.67;41.36
79150;BME280;68563;45.644;13.782;2023-05-07T11:20:01;100995.44;;;23.63;41.49
79150;BME280;68563;45.644;13.782;2023-05-07T11:25:07;101012.78;;;23.67;41.59
79150;BME280;68563;45.644;13.782;2023-05-07T11:27:33;101009.22;;;23.68;41.08
79150;BME280;68563;45.644;13.782;2023-05-07T11:29:59;101010.03;;;23.69;41.20
79150;BME280;68563;45.644;13.782;2023-05-07T11:32:30;101007.22;;;23.72;40.70
79150;BME280;68563;45.644;13.782;2023-05-07T11:34:58;101007.03;;;23.75;40.69
79150;BME280;68563;45.644;13.782;2023-05-07T11:37:24;101003.63;;;23.73;40.37
79150;BME280;68563;45.644;13.782;2023-05-07T11:39:50;101004.28;;;23.77;40.42
79150;BME280;68563;45.644;13.782;2023-05-07T11:42:50;101007.75;;;23.77;39.70
79150;BME280;68563;45.644;13.782;2023-05-07T11:45:23;101010.41;;;23.77;39.64
79150;BME280;68563;45.644;13.782;2023-05-07T11:47:50;101001.66;;;23.77;39.61
79150;BME280;68563;45.644;13.782;2023-05-07T11:50:15;101006.72;;;23.80;39.64
79150;BME280;68563;45.644;13.782;2023-05-07T11:52:50;101004.84;;;23.82;39.83
79150;BME280;68563;45.644;13.782;2023-05-07T11:55:18;101012.59;;;23.85;39.51
79150;BME280;68563;45.644;13.782;2023-05-07T11:57:44;101008.13;;;23.85;39.76
79150;BME280;68563;45.644;13.782;2023-05-07T12:00:10;101006.25;;;23.87;39.48
79150;BME280;68563;45.644;13.782;2023-05-07T12:02:35;101004.66;;;23.85;39.83
79150;BME280;68563;45.644;13.782;2023-05-07T12:05:01;101000.19;;;23.85;39.43
79150;BME280;68563;45.644;13.782;2023-05-07T12:07:27;101001.16;;;23.84;40.02
79150;BME280;68563;45.644;13.782;2023-05-07T12:09:53;101002.00;;;23.85;39.80
79150;BME280;68563;45.644;13.782;2023-05-07T12:12:19;101004.56;;;23.86;39.51
79150;BME280;68563;45.644;13.782;2023-05-07T12:14:45;101011.63;;;23.86;39.48
79150;BME280;68563;45.644;13.782;2023-05-07T12:17:12;101006.66;;;23.81;38.72
79150;BME280;68563;45.644;13.782;2023-05-07T12:19:39;101015.41;;;23.82;38.26
79150;BME280;68563;45.644;13.782;2023-05-07T12:22:07;101019.75;;;23.83;38.77
79150;BME280;68563;45.644;13.782;2023-05-07T12:24:45;101009.19;;;23.83;39.21
79150;BME280;68563;45.644;13.782;2023-05-07T12:27:11;101005.66;;;23.82;39.67
79150;BME280;68563;45.644;13.782;2023-05-07T12:29:36;101004.94;;;23.80;39.33
79150;BME280;68563;45.644;13.782;2023-05-07T12:32:06;101003.91;;;23.83;39.19
79150;BME280;68563;45.644;13.782;2023-05-07T12:34:31;101011.81;;;23.83;39.25
79150;BME280;68563;45.644;13.782;2023-05-07T12:36:57;101007.59;;;23.80;39.96
79150;BME280;68563;45.644;13.782;2023-05-07T12:39:22;101008.44;;;23.81;39.73
79150;BME280;68563;45.644;13.782;2023-05-07T12:41:55;101004.00;;;23.81;39.20
79150;BME280;68563;45.644;13.782;2023-05-07T12:44:24;101012.59;;;23.85;39.37
79150;BME280;68563;45.644;13.782;2023-05-07T12:46:49;101005.59;;;23.84;39.58
79150;BME280;68563;45.644;13.782;2023-05-07T12:49:15;100997.66;;;23.84;38.83
79150;BME280;68563;45.644;13.782;2023-05-07T12:51:41;100992.56;;;23.81;38.72
79150;BME280;68563;45.644;13.782;2023-05-07T12:54:06;101002.00;;;23.85;38.45
79150;BME280;68563;45.644;13.782;2023-05-07T12:56:35;101000.97;;;23.87;38.67
79150;BME280;68563;45.644;13.782;2023-05-07T12:59:01;100998.22;;;23.89;38.81